sensor_id;sensor_type;location;lat;lon;timestamp;P1;durP1;ratioP1;P2;durP2;ratioP2
14191;SDS011;7177;48.572;7.838;2023-12-29T00:01:31;8.23;;;7.40;;
14191;SDS011;7177;48.572;7.838;2023-12-29T00:03:57;8.70;;;7.17;;
14191;SDS011;7177;48.572;7.838;2023-12-29T00:06:22;9.10;;;7.23;;
14191;SDS011;7177;48.572;7.838;2023-12-29T00:08:48;10.30;;;7.30;;
14191;SDS011;7177;48.572;7.838;2023-12-29T00:11:19;8.53;;;6.63;;
14191;SDS011;7177;48.572;7.838;2023-12-29T00:13:45;9.47;;;6.97;;
14191;SDS011;7177;48.572;7.838;2023-12-29T00:16:11;9.70;;;7.00;;
14191;SDS011;7177;48.572;7.838;2023-12-29T00:18:37;8.57;;;6.80;;
14191;SDS011;7177;48.572;7.838;2023-12-29T00:21:03;9.03;;;6.97;;
14191;SDS011;7177;48.572;7.838;2023-12-29T00:23:29;9.83;;;6.80;;
14191;SDS011;7177;48.572;7.838;2023-12-29T00:25:55;7.43;;;6.63;;
14191;SDS011;7177;48.572;7.838;2023-12-29T00:28:20;9.23;;;6.93;;
14191;SDS011;7177;48.572;7.838;2023-12-29T00:30:46;9.93;;;6.87;;
14191;SDS011;7177;48.572;7.838;2023-12-29T00:33:12;9.03;;;7.23;;
14191;SDS011;7177;48.572;7.838;2023-12-29T00:35:37;7.63;;;6.10;;
14191;SDS011;7177;48.572;7.838;2023-12-29T00:38:04;8.20;;;6.53;;
14191;SDS011;7177;48.572;7.838;2023-12-29T00:40:29;8.27;;;6.97;;
14191;SDS011;7177;48.572;7.838;2023-12-29T00:42:55;11.43;;;5.90;;
14191;SDS011;7177;48.572;7.838;2023-12-29T00:45:20;9.87;;;6.40;;
14191;SDS011;7177;48.572;7.838;2023-12-29T00:47:46;8.87;;;7.00;;
14191;SDS011;7177;48.572;7.838;2023-12-29T00:50:13;11.53;;;7.47;;
14191;SDS011;7177;48.572;7.838;2023-12-29T00:52:39;13.33;;;7.43;;
14191;SDS011;7177;48.572;7.838;2023-12-29T00:55:05;10.15;;;6.80;;
14191;SDS011;7177;48.572;7.838;2023-12-29T00:57:30;8.87;;;6.67;;
14191;SDS011;7177;48.572;7.838;2023-12-29T00:59:56;8.47;;;6.43;;
14191;SDS011;7177;48.572;7.838;2023-12-29T01:02:21;11.93;;;7.20;;
14191;SDS011;7177;48.572;7.838;2023-12-29T01:04:47;10.33;;;7.03;;
14191;SDS011;7177;48.572;7.838;2023-12-29T01:07:13;9.40;;;7.20;;
14191;SDS011;7177;48.572;7.838;2023-12-29T01:09:39;9.03;;;7.20;;
14191;SDS011;7177;48.572;7.838;2023-12-29T01:12:07;11.60;;;7.10;;
14191;SDS011;7177;48.572;7.838;2023-12-29T01:14:32;8.93;;;6.83;;
14191;SDS011;7177;48.572;7.838;2023-12-29T01:16:58;9.67;;;7.20;;
14191;SDS011;7177;48.572;7.838;2023-12-29T01:19:23;9.03;;;7.20;;
14191;SDS011;7177;48.572;7.838;2023-12-29T01:21:49;8.63;;;7.17;;
14191;SDS011;7177;48.572;7.838;2023-12-29T01:24:14;11.97;;;7.63;;
14191;SDS011;7177;48.572;7.838;2023-12-29T01:26:40;8.87;;;7.10;;
14191;SDS011;7177;48.572;7.838;2023-12-29T01:29:06;9.70;;;6.70;;
14191;SDS011;7177;48.572;7.838;2023-12-29T01:31:31;10.80;;;7.73;;
14191;SDS011;7177;48.572;7.838;2023-12-29T01:33:57;9.23;;;6.60;;
14191;SDS011;7177;48.572;7.838;2023-12-29T01:36:23;10.17;;;6.63;;
14191;SDS011;7177;48.572;7.838;2023-12-29T01:38:48;8.73;;;6.60;;
14191;SDS011;7177;48.572;7.838;2023-12-29T01:41:14;9.93;;;7.10;;
14191;SDS011;7177;48.572;7.838;2023-12-29T01:46:25;10.50;;;7.00;;
14191;SDS011;7177;48.572;7.838;2023-12-29T01:48:52;8.03;;;6.60;;
14191;SDS011;7177;48.572;7.838;2023-12-29T01:51:18;9.47;;;7.23;;
14191;SDS011;7177;48.572;7.838;2023-12-29T01:53:48;9.73;;;7.53;;
14191;SDS011;7177;48.572;7.838;2023-12-29T01:56:14;9.87;;;7.80;;
14191;SDS011;7177;48.572;7.838;2023-12-29T01:58:39;8.03;;;7.10;;
14191;SDS011;7177;48.572;7.838;2023-12-29T02:01:05;9.07;;;7.20;;
14191;SDS011;7177;48.572;7.838;2023-12-29T02:03:32;8.93;;;7.13;;
14191;SDS011;7177;48.572;7.838;2023-12-29T02:05:59;11.30;;;7.40;;
14191;SDS011;7177;48.572;7.838;2023-12-29T02:08:24;9.93;;;7.47;;
14191;SDS011;7177;48.572;7.838;2023-12-29T02:10:50;9.33;;;7.07;;
14191;SDS011;7177;48.572;7.838;2023-12-29T02:13:16;8.73;;;6.73;;
14191;SDS011;7177;48.572;7.838;2023-12-29T02:15:42;8.00;;;6.90;;
14191;SDS011;7177;48.572;7.838;2023-12-29T02:18:09;7.33;;;6.40;;
14191;SDS011;7177;48.572;7.838;2023-12-29T02:20:39;10.40;;;6.73;;
14191;SDS011;7177;48.572;7.838;2023-12-29T02:23:06;9.43;;;7.27;;
14191;SDS011;7177;48.572;7.838;2023-12-29T02:25:31;9.73;;;6.80;;
14191;SDS011;7177;48.572;7.838;2023-12-29T02:30:51;8.57;;;6.37;;
14191;SDS011;7177;48.572;7.838;2023-12-29T02:33:25;8.53;;;6.67;;
14191;SDS011;7177;48.572;7.838;2023-12-29T02:35:53;9.07;;;7.13;;
14191;SDS011;7177;48.572;7.838;2023-12-29T02:38:21;14.27;;;7.23;;
14191;SDS011;7177;48.572;7.838;2023-12-29T02:40:47;7.73;;;6.87;;
14191;SDS011;7177;48.572;7.838;2023-12-29T02:43:13;8.80;;;6.80;;
14191;SDS011;7177;48.572;7.838;2023-12-29T02:45:38;9.17;;;7.07;;
14191;SDS011;7177;48.572;7.838;2023-12-29T02:48:04;9.43;;;7.17;;
14191;SDS011;7177;48.572;7.838;2023-12-29T02:50:29;8.43;;;7.03;;
14191;SDS011;7177;48.572;7.838;2023-12-29T02:52:55;9.80;;;7.80;;
14191;SDS011;7177;48.572;7.838;2023-12-29T02:55:20;8.70;;;6.90;;
14191;SDS011;7177;48.572;7.838;2023-12-29T02:57:47;12.27;;;7.97;;
14191;SDS011;7177;48.572;7.838;2023-12-29T03:00:13;12.13;;;7.87;;
14191;SDS011;7177;48.572;7.838;2023-12-29T03:02:39;9.07;;;7.73;;
14191;SDS011;7177;48.572;7.838;2023-12-29T03:05:04;13.47;;;7.97;;
14191;SDS011;7177;48.572;7.838;2023-12-29T03:07:31;10.60;;;7.30;;
14191;SDS011;7177;48.572;7.838;2023-12-29T03:09:56;9.63;;;8.20;;
14191;SDS011;7177;48.572;7.838;2023-12-29T03:12:22;10.27;;;7.73;;
14191;SDS011;7177;48.572;7.838;2023-12-29T03:14:47;10.37;;;8.00;;
14191;SDS011;7177;48.572;7.838;2023-12-29T03:17:13;8.90;;;7.67;;
14191;SDS011;7177;48.572;7.838;2023-12-29T03:19:38;11.53;;;7.87;;
14191;SDS011;7177;48.572;7.838;2023-12-29T03:22:04;10.77;;;8.20;;
14191;SDS011;7177;48.572;7.838;2023-12-29T03:24:29;11.47;;;8.10;;
14191;SDS011;7177;48.572;7.838;2023-12-29T03:26:55;10.17;;;7.87;;
14191;SDS011;7177;48.572;7.838;2023-12-29T03:29:21;11.03;;;7.47;;
14191;SDS011;7177;48.572;7.838;2023-12-29T03:31:46;9.83;;;7.77;;
14191;SDS011;7177;48.572;7.838;2023-12-29T03:34:12;10.90;;;8.03;;
14191;SDS011;7177;48.572;7.838;2023-12-29T03:36:37;9.03;;;6.93;;
14191;SDS011;7177;48.572;7.838;2023-12-29T03:39:03;12.93;;;8.03;;
14191;SDS011;7177;48.572;7.838;2023-12-29T03:41:29;14.63;;;8.50;;
14191;SDS011;7177;48.572;7.838;2023-12-29T03:43:55;10.43;;;7.43;;
14191;SDS011;7177;48.572;7.838;2023-12-29T03:46:21;10.47;;;7.33;;
14191;SDS011;7177;48.572;7.838;2023-12-29T03:48:47;11.07;;;7.63;;
14191;SDS011;7177;48.572;7.838;2023-12-29T03:51:14;8.43;;;7.27;;
14191;SDS011;7177;48.572;7.838;2023-12-29T03:53:40;11.77;;;7.83;;
14191;SDS011;7177;48.572;7.838;2023-12-29T03:56:06;8.43;;;6.80;;
14191;SDS011;7177;48.572;7.838;2023-12-29T03:58:33;8.13;;;6.80;;
14191;SDS011;7177;48.572;7.838;2023-12-29T04:00:59;9.33;;;6.63;;
14191;SDS011;7177;48.572;7.838;2023-12-29T04:03:24;8.10;;;6.77;;
14191;SDS011;7177;48.572;7.838;2023-12-29T04:05:50;10.03;;;7.67;;
14191;SDS011;7177;48.572;7.838;2023-12-29T04:08:15;10.53;;;7.60;;
14191;SDS011;7177;48.572;7.838;2023-12-29T04:10:41;8.90;;;6.67;;
14191;SDS011;7177;48.572;7.838;2023-12-29T04:13:06;9.87;;;7.07;;
14191;SDS011;7177;48.572;7.838;2023-12-29T04:15:32;8.40;;;6.67;;
14191;SDS011;7177;48.572;7.838;2023-12-29T04:17:57;8.70;;;6.97;;
14191;SDS011;7177;48.572;7.838;2023-12-29T04:20:23;10.07;;;7.17;;
14191;SDS011;7177;48.572;7.838;2023-12-29T04:22:49;9.07;;;7.10;;
14191;SDS011;7177;48.572;7.838;2023-12-29T04:25:15;7.87;;;7.03;;
14191;SDS011;7177;48.572;7.838;2023-12-29T04:27:40;7.07;;;5.90;;
14191;SDS011;7177;48.572;7.838;2023-12-29T04:30:06;9.13;;;6.50;;
14191;SDS011;7177;48.572;7.838;2023-12-29T04:32:32;7.90;;;6.50;;
14191;SDS011;7177;48.572;7.838;2023-12-29T04:34:58;7.57;;;6.00;;
14191;SDS011;7177;48.572;7.838;2023-12-29T04:37:23;7.77;;;6.50;;
14191;SDS011;7177;48.572;7.838;2023-12-29T04:39:49;7.73;;;6.37;;
14191;SDS011;7177;48.572;7.838;2023-12-29T04:42:14;7.80;;;5.93;;
14191;SDS011;7177;48.572;7.838;2023-12-29T04:44:40;7.63;;;6.13;;
14191;SDS011;7177;48.572;7.838;2023-12-29T04:47:06;8.13;;;5.90;;
14191;SDS011;7177;48.572;7.838;2023-12-29T04:49:32;7.17;;;5.73;;
14191;SDS011;7177;48.572;7.838;2023-12-29T04:51:58;8.20;;;6.10;;
14191;SDS011;7177;48.572;7.838;2023-12-29T04:54:23;6.87;;;5.60;;
14191;SDS011;7177;48.572;7.838;2023-12-29T04:56:49;10.40;;;6.97;;
14191;SDS011;7177;48.572;7.838;2023-12-29T04:59:15;7.63;;;5.80;;
14191;SDS011;7177;48.572;7.838;2023-12-29T05:01:41;7.27;;;5.50;;
14191;SDS011;7177;48.572;7.838;2023-12-29T05:04:06;7.30;;;6.03;;
14191;SDS011;7177;48.572;7.838;2023-12-29T05:06:32;6.50;;;5.40;;
14191;SDS011;7177;48.572;7.838;2023-12-29T05:08:57;7.97;;;6.23;;
14191;SDS011;7177;48.572;7.838;2023-12-29T05:11:23;7.53;;;6.10;;
14191;SDS011;7177;48.572;7.838;2023-12-29T05:13:49;7.63;;;5.77;;
14191;SDS011;7177;48.572;7.838;2023-12-29T05:16:15;8.23;;;5.80;;
14191;SDS011;7177;48.572;7.838;2023-12-29T05:18:40;10.03;;;6.60;;
14191;SDS011;7177;48.572;7.838;2023-12-29T05:21:06;7.77;;;5.50;;
14191;SDS011;7177;48.572;7.838;2023-12-29T05:23:39;9.30;;;6.07;;
14191;SDS011;7177;48.572;7.838;2023-12-29T05:26:05;9.23;;;5.87;;
14191;SDS011;7177;48.572;7.838;2023-12-29T05:28:30;8.43;;;6.03;;
14191;SDS011;7177;48.572;7.838;2023-12-29T05:30:57;7.47;;;5.17;;
14191;SDS011;7177;48.572;7.838;2023-12-29T05:33:24;6.87;;;5.83;;
14191;SDS011;7177;48.572;7.838;2023-12-29T05:35:49;9.33;;;5.83;;
14191;SDS011;7177;48.572;7.838;2023-12-29T05:38:15;9.47;;;6.40;;
14191;SDS011;7177;48.572;7.838;2023-12-29T05:40:40;7.20;;;6.17;;
14191;SDS011;7177;48.572;7.838;2023-12-29T05:43:06;7.47;;;5.67;;
14191;SDS011;7177;48.572;7.838;2023-12-29T05:45:31;7.97;;;6.10;;
14191;SDS011;7177;48.572;7.838;2023-12-29T05:47:57;7.20;;;5.70;;
14191;SDS011;7177;48.572;7.838;2023-12-29T05:50:22;8.63;;;6.00;;
14191;SDS011;7177;48.572;7.838;2023-12-29T05:52:48;8.30;;;5.83;;
14191;SDS011;7177;48.572;7.838;2023-12-29T05:55:16;8.30;;;6.30;;
14191;SDS011;7177;48.572;7.838;2023-12-29T05:57:43;7.80;;;6.27;;
14191;SDS011;7177;48.572;7.838;2023-12-29T06:00:08;7.43;;;6.20;;
14191;SDS011;7177;48.572;7.838;2023-12-29T06:02:39;7.73;;;5.90;;
14191;SDS011;7177;48.572;7.838;2023-12-29T06:05:09;8.10;;;6.70;;
14191;SDS011;7177;48.572;7.838;2023-12-29T06:07:36;7.47;;;5.80;;
14191;SDS011;7177;48.572;7.838;2023-12-29T06:10:01;11.90;;;6.10;;
14191;SDS011;7177;48.572;7.838;2023-12-29T06:12:27;7.87;;;6.50;;
14191;SDS011;7177;48.572;7.838;2023-12-29T06:14:53;8.03;;;6.33;;
14191;SDS011;7177;48.572;7.838;2023-12-29T06:17:18;9.17;;;6.40;;
14191;SDS011;7177;48.572;7.838;2023-12-29T06:19:44;8.03;;;6.00;;
14191;SDS011;7177;48.572;7.838;2023-12-29T06:22:09;7.27;;;6.20;;
14191;SDS011;7177;48.572;7.838;2023-12-29T06:24:37;7.23;;;6.33;;
14191;SDS011;7177;48.572;7.838;2023-12-29T06:27:02;7.80;;;6.30;;
14191;SDS011;7177;48.572;7.838;2023-12-29T06:29:28;7.97;;;6.47;;
14191;SDS011;7177;48.572;7.838;2023-12-29T06:31:54;8.97;;;6.73;;
14191;SDS011;7177;48.572;7.838;2023-12-29T06:34:19;7.83;;;6.10;;
14191;SDS011;7177;48.572;7.838;2023-12-29T06:36:45;8.73;;;6.43;;
14191;SDS011;7177;48.572;7.838;2023-12-29T06:39:10;10.53;;;7.17;;
14191;SDS011;7177;48.572;7.838;2023-12-29T06:41:36;8.00;;;6.60;;
14191;SDS011;7177;48.572;7.838;2023-12-29T06:44:02;7.73;;;6.40;;
14191;SDS011;7177;48.572;7.838;2023-12-29T06:46:27;7.87;;;6.20;;
14191;SDS011;7177;48.572;7.838;2023-12-29T06:48:53;8.57;;;5.80;;
14191;SDS011;7177;48.572;7.838;2023-12-29T06:51:18;6.97;;;5.80;;
14191;SDS011;7177;48.572;7.838;2023-12-29T06:53:47;9.30;;;6.87;;
14191;SDS011;7177;48.572;7.838;2023-12-29T06:56:14;7.37;;;6.57;;
14191;SDS011;7177;48.572;7.838;2023-12-29T06:58:40;9.93;;;6.50;;
14191;SDS011;7177;48.572;7.838;2023-12-29T07:01:06;12.70;;;6.50;;
14191;SDS011;7177;48.572;7.838;2023-12-29T07:03:31;9.23;;;6.90;;
14191;SDS011;7177;48.572;7.838;2023-12-29T07:05:57;8.87;;;6.60;;
14191;SDS011;7177;48.572;7.838;2023-12-29T07:08:25;6.77;;;6.07;;
14191;SDS011;7177;48.572;7.838;2023-12-29T07:10:51;7.57;;;6.30;;
14191;SDS011;7177;48.572;7.838;2023-12-29T07:13:17;7.73;;;6.07;;
14191;SDS011;7177;48.572;7.838;2023-12-29T07:15:42;7.13;;;5.63;;
14191;SDS011;7177;48.572;7.838;2023-12-29T07:18:08;7.50;;;5.70;;
14191;SDS011;7177;48.572;7.838;2023-12-29T07:20:33;7.17;;;6.13;;
14191;SDS011;7177;48.572;7.838;2023-12-29T07:22:59;8.67;;;5.90;;
14191;SDS011;7177;48.572;7.838;2023-12-29T07:25:25;7.90;;;5.87;;
14191;SDS011;7177;48.572;7.838;2023-12-29T07:27:51;11.60;;;6.53;;
14191;SDS011;7177;48.572;7.838;2023-12-29T07:30:17;8.73;;;6.27;;
14191;SDS011;7177;48.572;7.838;2023-12-29T07:32:43;8.70;;;5.73;;
14191;SDS011;7177;48.572;7.838;2023-12-29T07:35:09;7.97;;;6.03;;
14191;SDS011;7177;48.572;7.838;2023-12-29T07:37:34;7.07;;;5.67;;
14191;SDS011;7177;48.572;7.838;2023-12-29T07:40:00;6.47;;;5.50;;
14191;SDS011;7177;48.572;7.838;2023-12-29T07:42:25;7.07;;;5.43;;
14191;SDS011;7177;48.572;7.838;2023-12-29T07:44:51;6.30;;;5.13;;
14191;SDS011;7177;48.572;7.838;2023-12-29T07:47:17;6.20;;;4.80;;
14191;SDS011;7177;48.572;7.838;2023-12-29T07:49:42;6.40;;;4.90;;
14191;SDS011;7177;48.572;7.838;2023-12-29T07:52:08;10.20;;;5.47;;
14191;SDS011;7177;48.572;7.838;2023-12-29T07:54:33;8.80;;;5.43;;
14191;SDS011;7177;48.572;7.838;2023-12-29T07:56:59;7.03;;;5.60;;
14191;SDS011;7177;48.572;7.838;2023-12-29T07:59:25;6.90;;;5.43;;
14191;SDS011;7177;48.572;7.838;2023-12-29T08:01:51;11.80;;;5.30;;
14191;SDS011;7177;48.572;7.838;2023-12-29T08:04:17;7.80;;;5.63;;
14191;SDS011;7177;48.572;7.838;2023-12-29T08:06:42;5.93;;;5.30;;
14191;SDS011;7177;48.572;7.838;2023-12-29T08:09:08;5.83;;;4.60;;
14191;SDS011;7177;48.572;7.838;2023-12-29T08:11:34;8.00;;;4.60;;
14191;SDS011;7177;48.572;7.838;2023-12-29T08:14:00;9.53;;;5.07;;
14191;SDS011;7177;48.572;7.838;2023-12-29T08:16:26;6.80;;;4.30;;
14191;SDS011;7177;48.572;7.838;2023-12-29T08:18:52;7.80;;;5.27;;
14191;SDS011;7177;48.572;7.838;2023-12-29T08:21:20;5.20;;;4.50;;
14191;SDS011;7177;48.572;7.838;2023-12-29T08:23:47;6.40;;;4.10;;
14191;SDS011;7177;48.572;7.838;2023-12-29T08:26:13;5.97;;;4.30;;
14191;SDS011;7177;48.572;7.838;2023-12-29T08:28:39;7.63;;;4.70;;
14191;SDS011;7177;48.572;7.838;2023-12-29T08:31:06;7.57;;;4.43;;
14191;SDS011;7177;48.572;7.838;2023-12-29T08:33:32;5.63;;;4.50;;
14191;SDS011;7177;48.572;7.838;2023-12-29T08:35:58;5.53;;;4.47;;
14191;SDS011;7177;48.572;7.838;2023-12-29T08:38:26;5.13;;;4.63;;
14191;SDS011;7177;48.572;7.838;2023-12-29T08:40:52;6.83;;;4.93;;
14191;SDS011;7177;48.572;7.838;2023-12-29T08:43:17;6.57;;;4.50;;
14191;SDS011;7177;48.572;7.838;2023-12-29T08:45:46;8.33;;;5.13;;
14191;SDS011;7177;48.572;7.838;2023-12-29T08:48:13;5.77;;;4.40;;
14191;SDS011;7177;48.572;7.838;2023-12-29T08:50:38;5.13;;;4.57;;
14191;SDS011;7177;48.572;7.838;2023-12-29T08:53:04;6.43;;;4.47;;
14191;SDS011;7177;48.572;7.838;2023-12-29T08:55:29;6.47;;;4.20;;
14191;SDS011;7177;48.572;7.838;2023-12-29T08:57:56;5.47;;;4.50;;
14191;SDS011;7177;48.572;7.838;2023-12-29T09:00:22;7.60;;;4.60;;
14191;SDS011;7177;48.572;7.838;2023-12-29T09:02:48;4.60;;;4.10;;
14191;SDS011;7177;48.572;7.838;2023-12-29T09:05:13;5.50;;;4.40;;
14191;SDS011;7177;48.572;7.838;2023-12-29T09:07:39;6.07;;;4.20;;
14191;SDS011;7177;48.572;7.838;2023-12-29T09:10:04;6.07;;;4.40;;
14191;SDS011;7177;48.572;7.838;2023-12-29T09:12:33;4.87;;;4.10;;
14191;SDS011;7177;48.572;7.838;2023-12-29T09:14:59;4.57;;;3.97;;
14191;SDS011;7177;48.572;7.838;2023-12-29T09:17:24;5.90;;;4.07;;
14191;SDS011;7177;48.572;7.838;2023-12-29T09:19:50;6.03;;;4.70;;
14191;SDS011;7177;48.572;7.838;2023-12-29T09:22:15;5.73;;;4.00;;
14191;SDS011;7177;48.572;7.838;2023-12-29T09:24:41;4.90;;;3.50;;
14191;SDS011;7177;48.572;7.838;2023-12-29T09:27:07;5.33;;;4.00;;
14191;SDS011;7177;48.572;7.838;2023-12-29T09:29:33;4.43;;;3.50;;
14191;SDS011;7177;48.572;7.838;2023-12-29T09:31:59;4.27;;;3.10;;
14191;SDS011;7177;48.572;7.838;2023-12-29T09:34:25;5.00;;;3.30;;
14191;SDS011;7177;48.572;7.838;2023-12-29T09:36:50;5.43;;;3.10;;
14191;SDS011;7177;48.572;7.838;2023-12-29T09:39:16;8.10;;;3.30;;
14191;SDS011;7177;48.572;7.838;2023-12-29T09:41:42;4.27;;;3.30;;
14191;SDS011;7177;48.572;7.838;2023-12-29T09:44:14;4.83;;;3.57;;
14191;SDS011;7177;48.572;7.838;2023-12-29T09:46:41;5.67;;;3.40;;
14191;SDS011;7177;48.572;7.838;2023-12-29T09:49:07;4.47;;;3.17;;
14191;SDS011;7177;48.572;7.838;2023-12-29T09:51:34;4.93;;;3.20;;
14191;SDS011;7177;48.572;7.838;2023-12-29T09:54:02;5.30;;;3.53;;
14191;SDS011;7177;48.572;7.838;2023-12-29T09:56:28;3.67;;;3.20;;
14191;SDS011;7177;48.572;7.838;2023-12-29T09:58:54;4.80;;;3.57;;
14191;SDS011;7177;48.572;7.838;2023-12-29T10:01:21;3.70;;;2.87;;
14191;SDS011;7177;48.572;7.838;2023-12-29T10:03:48;3.07;;;2.77;;
14191;SDS011;7177;48.572;7.838;2023-12-29T10:06:15;4.23;;;3.07;;
14191;SDS011;7177;48.572;7.838;2023-12-29T10:08:45;3.03;;;2.73;;
14191;SDS011;7177;48.572;7.838;2023-12-29T10:11:13;7.57;;;3.60;;
14191;SDS011;7177;48.572;7.838;2023-12-29T10:13:42;4.60;;;3.30;;
14191;SDS011;7177;48.572;7.838;2023-12-29T10:19:05;4.80;;;2.80;;
14191;SDS011;7177;48.572;7.838;2023-12-29T10:21:48;5.17;;;2.90;;
14191;SDS011;7177;48.572;7.838;2023-12-29T10:24:21;3.33;;;2.83;;
14191;SDS011;7177;48.572;7.838;2023-12-29T10:26:47;4.13;;;3.07;;
14191;SDS011;7177;48.572;7.838;2023-12-29T10:29:14;3.23;;;2.80;;
14191;SDS011;7177;48.572;7.838;2023-12-29T10:31:40;4.80;;;3.10;;
14191;SDS011;7177;48.572;7.838;2023-12-29T10:34:38;5.37;;;2.97;;
14191;SDS011;7177;48.572;7.838;2023-12-29T10:37:00;3.30;;;2.83;;
14191;SDS011;7177;48.572;7.838;2023-12-29T10:39:34;6.90;;;3.10;;
14191;SDS011;7177;48.572;7.838;2023-12-29T10:42:04;4.63;;;2.93;;
14191;SDS011;7177;48.572;7.838;2023-12-29T10:44:32;3.50;;;2.97;;
14191;SDS011;7177;48.572;7.838;2023-12-29T10:46:58;4.60;;;2.43;;
14191;SDS011;7177;48.572;7.838;2023-12-29T10:49:32;4.90;;;2.50;;
14191;SDS011;7177;48.572;7.838;2023-12-29T10:51:57;3.23;;;2.93;;
14191;SDS011;7177;48.572;7.838;2023-12-29T10:54:23;3.47;;;2.57;;
14191;SDS011;7177;48.572;7.838;2023-12-29T10:57:01;3.30;;;2.60;;
14191;SDS011;7177;48.572;7.838;2023-12-29T10:59:27;5.10;;;2.10;;
14191;SDS011;7177;48.572;7.838;2023-12-29T11:01:53;2.97;;;2.43;;
14191;SDS011;7177;48.572;7.838;2023-12-29T11:04:21;3.30;;;2.50;;
14191;SDS011;7177;48.572;7.838;2023-12-29T11:06:47;3.90;;;2.50;;
14191;SDS011;7177;48.572;7.838;2023-12-29T11:09:26;4.47;;;2.40;;
14191;SDS011;7177;48.572;7.838;2023-12-29T11:11:54;3.90;;;2.90;;
14191;SDS011;7177;48.572;7.838;2023-12-29T11:14:21;4.07;;;2.67;;
14191;SDS011;7177;48.572;7.838;2023-12-29T11:16:47;3.27;;;2.87;;
14191;SDS011;7177;48.572;7.838;2023-12-29T11:19:14;4.20;;;2.90;;
14191;SDS011;7177;48.572;7.838;2023-12-29T11:21:40;3.67;;;2.90;;
14191;SDS011;7177;48.572;7.838;2023-12-29T11:24:07;6.50;;;3.33;;
14191;SDS011;7177;48.572;7.838;2023-12-29T11:26:33;3.80;;;3.30;;
14191;SDS011;7177;48.572;7.838;2023-12-29T11:28:59;3.70;;;2.97;;
14191;SDS011;7177;48.572;7.838;2023-12-29T11:31:26;3.10;;;2.60;;
14191;SDS011;7177;48.572;7.838;2023-12-29T11:34:00;4.67;;;3.10;;
14191;SDS011;7177;48.572;7.838;2023-12-29T11:36:33;4.63;;;3.57;;
14191;SDS011;7177;48.572;7.838;2023-12-29T11:44:25;4.90;;;3.20;;
14191;SDS011;7177;48.572;7.838;2023-12-29T11:46:52;3.50;;;2.80;;
14191;SDS011;7177;48.572;7.838;2023-12-29T11:49:18;4.33;;;3.50;;
14191;SDS011;7177;48.572;7.838;2023-12-29T11:51:46;4.60;;;3.03;;
14191;SDS011;7177;48.572;7.838;2023-12-29T11:54:26;5.03;;;3.20;;
14191;SDS011;7177;48.572;7.838;2023-12-29T11:56:53;4.27;;;3.13;;
14191;SDS011;7177;48.572;7.838;2023-12-29T11:59:22;3.17;;;2.70;;
14191;SDS011;7177;48.572;7.838;2023-12-29T12:07:01;3.63;;;2.80;;
14191;SDS011;7177;48.572;7.838;2023-12-29T12:09:27;3.60;;;2.60;;
14191;SDS011;7177;48.572;7.838;2023-12-29T12:11:53;4.53;;;2.70;;
14191;SDS011;7177;48.572;7.838;2023-12-29T12:17:26;3.70;;;2.83;;
14191;SDS011;7177;48.572;7.838;2023-12-29T12:19:59;3.77;;;3.00;;
14191;SDS011;7177;48.572;7.838;2023-12-29T12:22:33;3.30;;;2.60;;
14191;SDS011;7177;48.572;7.838;2023-12-29T12:25:00;3.30;;;2.30;;
14191;SDS011;7177;48.572;7.838;2023-12-29T12:27:26;3.33;;;2.93;;
14191;SDS011;7177;48.572;7.838;2023-12-29T12:29:55;3.73;;;3.20;;
14191;SDS011;7177;48.572;7.838;2023-12-29T12:32:24;3.37;;;2.70;;
14191;SDS011;7177;48.572;7.838;2023-12-29T12:34:51;3.50;;;2.80;;
14191;SDS011;7177;48.572;7.838;2023-12-29T12:37:34;2.80;;;2.43;;
14191;SDS011;7177;48.572;7.838;2023-12-29T12:39:59;3.00;;;2.20;;
14191;SDS011;7177;48.572;7.838;2023-12-29T12:42:25;2.57;;;2.37;;
14191;SDS011;7177;48.572;7.838;2023-12-29T12:45:24;6.40;;;2.40;;
14191;SDS011;7177;48.572;7.838;2023-12-29T12:47:45;2.53;;;2.33;;
14191;SDS011;7177;48.572;7.838;2023-12-29T12:50:15;3.50;;;2.37;;
14191;SDS011;7177;48.572;7.838;2023-12-29T12:52:41;2.67;;;2.00;;
14191;SDS011;7177;48.572;7.838;2023-12-29T12:55:07;2.93;;;2.10;;
14191;SDS011;7177;48.572;7.838;2023-12-29T12:57:34;3.93;;;2.20;;
14191;SDS011;7177;48.572;7.838;2023-12-29T13:00:01;2.47;;;2.10;;
14191;SDS011;7177;48.572;7.838;2023-12-29T13:02:27;2.43;;;1.97;;
14191;SDS011;7177;48.572;7.838;2023-12-29T13:04:55;2.23;;;1.93;;
14191;SDS011;7177;48.572;7.838;2023-12-29T13:07:21;2.23;;;2.03;;
14191;SDS011;7177;48.572;7.838;2023-12-29T13:09:47;2.13;;;1.90;;
14191;SDS011;7177;48.572;7.838;2023-12-29T13:12:15;2.30;;;2.00;;
14191;SDS011;7177;48.572;7.838;2023-12-29T13:14:41;2.53;;;2.23;;
14191;SDS011;7177;48.572;7.838;2023-12-29T13:17:11;2.73;;;1.70;;
14191;SDS011;7177;48.572;7.838;2023-12-29T13:19:38;2.90;;;1.80;;
14191;SDS011;7177;48.572;7.838;2023-12-29T13:22:10;2.43;;;1.90;;
14191;SDS011;7177;48.572;7.838;2023-12-29T13:24:42;1.23;;;1.13;;
14191;SDS011;7177;48.572;7.838;2023-12-29T13:27:08;5.23;;;1.87;;
14191;SDS011;7177;48.572;7.838;2023-12-29T13:29:35;1.90;;;1.70;;
14191;SDS011;7177;48.572;7.838;2023-12-29T13:32:10;2.70;;;1.97;;
14191;SDS011;7177;48.572;7.838;2023-12-29T13:42:53;5.33;;;2.00;;
14191;SDS011;7177;48.572;7.838;2023-12-29T13:45:23;1.67;;;1.57;;
14191;SDS011;7177;48.572;7.838;2023-12-29T13:47:49;3.40;;;1.83;;
14191;SDS011;7177;48.572;7.838;2023-12-29T13:50:15;3.03;;;1.83;;
14191;SDS011;7177;48.572;7.838;2023-12-29T13:52:41;2.50;;;1.73;;
14191;SDS011;7177;48.572;7.838;2023-12-29T13:55:07;3.00;;;1.63;;
14191;SDS011;7177;48.572;7.838;2023-12-29T13:57:33;2.23;;;1.80;;
14191;SDS011;7177;48.572;7.838;2023-12-29T14:02:48;2.70;;;2.00;;
14191;SDS011;7177;48.572;7.838;2023-12-29T14:05:23;2.20;;;2.00;;
14191;SDS011;7177;48.572;7.838;2023-12-29T14:10:34;3.37;;;2.00;;
14191;SDS011;7177;48.572;7.838;2023-12-29T14:13:07;3.53;;;2.03;;
14191;SDS011;7177;48.572;7.838;2023-12-29T14:15:37;3.73;;;2.20;;
14191;SDS011;7177;48.572;7.838;2023-12-29T14:20:39;3.23;;;2.10;;
14191;SDS011;7177;48.572;7.838;2023-12-29T14:23:07;3.20;;;2.27;;
14191;SDS011;7177;48.572;7.838;2023-12-29T14:25:33;2.30;;;2.00;;
14191;SDS011;7177;48.572;7.838;2023-12-29T14:28:02;3.50;;;2.10;;
14191;SDS011;7177;48.572;7.838;2023-12-29T14:30:28;2.33;;;1.67;;
14191;SDS011;7177;48.572;7.838;2023-12-29T14:32:56;2.60;;;1.97;;
14191;SDS011;7177;48.572;7.838;2023-12-29T14:35:23;3.67;;;1.97;;
14191;SDS011;7177;48.572;7.838;2023-12-29T14:37:48;2.57;;;2.03;;
14191;SDS011;7177;48.572;7.838;2023-12-29T14:40:14;2.50;;;2.00;;
14191;SDS011;7177;48.572;7.838;2023-12-29T14:42:39;3.47;;;2.07;;
14191;SDS011;7177;48.572;7.838;2023-12-29T14:45:08;4.30;;;2.00;;
14191;SDS011;7177;48.572;7.838;2023-12-29T14:47:34;5.67;;;2.17;;
14191;SDS011;7177;48.572;7.838;2023-12-29T14:50:00;2.43;;;1.70;;
14191;SDS011;7177;48.572;7.838;2023-12-29T14:52:25;2.00;;;1.70;;
14191;SDS011;7177;48.572;7.838;2023-12-29T14:54:51;4.33;;;2.03;;
14191;SDS011;7177;48.572;7.838;2023-12-29T14:57:17;4.67;;;2.00;;
14191;SDS011;7177;48.572;7.838;2023-12-29T14:59:42;2.70;;;2.00;;
14191;SDS011;7177;48.572;7.838;2023-12-29T15:02:08;4.63;;;2.17;;
14191;SDS011;7177;48.572;7.838;2023-12-29T15:04:34;3.13;;;2.00;;
14191;SDS011;7177;48.572;7.838;2023-12-29T15:07:00;3.00;;;2.30;;
14191;SDS011;7177;48.572;7.838;2023-12-29T15:09:27;3.13;;;2.07;;
14191;SDS011;7177;48.572;7.838;2023-12-29T15:11:53;2.60;;;2.10;;
14191;SDS011;7177;48.572;7.838;2023-12-29T15:14:19;3.13;;;2.10;;
14191;SDS011;7177;48.572;7.838;2023-12-29T15:16:45;1.87;;;1.67;;
14191;SDS011;7177;48.572;7.838;2023-12-29T15:19:11;3.40;;;2.43;;
14191;SDS011;7177;48.572;7.838;2023-12-29T15:21:39;3.30;;;2.30;;
14191;SDS011;7177;48.572;7.838;2023-12-29T15:24:05;2.77;;;2.10;;
14191;SDS011;7177;48.572;7.838;2023-12-29T15:26:31;2.47;;;1.97;;
14191;SDS011;7177;48.572;7.838;2023-12-29T15:28:57;2.23;;;1.90;;
14191;SDS011;7177;48.572;7.838;2023-12-29T15:31:23;3.50;;;2.47;;
14191;SDS011;7177;48.572;7.838;2023-12-29T15:33:51;2.73;;;2.33;;
14191;SDS011;7177;48.572;7.838;2023-12-29T15:36:20;3.00;;;2.30;;